Historyczne dane pomiarowe

Dodano dane terminowe – wersja testowa.

Dane z okresu 1951-2019

Wersja bazy: 1.34 [2019-03-16, lista zmian], aktualizacja planowana na 2019-04-15

Dane meteo z obszaru Polski uzyskane na podstawie danych udostępnionych przez Instytut Meteorologii i Gospodarki Wodnej – Państwowy Instytut Badawczy.

 

Wybierz Datę:    

       

TemperaturaWilgotnośćWiatrCiśnienieOpadyŚniegCzas trwania zjawisk
 Stacja t tx tn tng RH VA  wxwx mslp ppp RRR   cm mm wxwxwxwxwxwxwx
1961-03-18 10.1 17.2 3.8- 75.0- 6.3 2.0---- 0.0------------
1961-03-19 3.7 9.8 1.9- 71.0- 7.3 3.0---- 0.0------------
1961-03-20 -1.1 2.8 -3.0- 93.8- 3.3 1.0---- 1.4------------
1961-03-21 0.7 4.4 -2.2- 93.0- 8.0 3.3---- 1.6------------
1961-03-22 -0.1 2.8 -1.3- 75.5- 5.3 2.3---- 0.0------------
1961-03-23 3.2 5.5 -3.7- 85.8- 8.0 1.3---- 0.1------------
1961-03-24 6.3 8.2 4.6- 70.3- 5.3 5.0---- 0.0------------
1961-03-25 5.6 9.7 3.6- 78.8- 4.3 3.3---- 0.0------------
1961-03-26 7.2 11.0 0.7- 71.0- 7.3 3.0---- 1.9------------
1961-03-27 3.5 8.2 1.1- 64.8- 3.0 7.0---- 0.0------------
1961-03-28 1.2 4.4 -0.9- 75.0- 6.7 4.0---- 2.3------------
1961-03-29 2.3 3.9 0.1- 87.3- 8.0 1.7---- 1.9------------
1961-03-30 6.3 7.4 2.6- 87.3- 8.0 5.0---- 3.0------------
1961-03-31 3.6 7.3 2.1- 80.3- 7.7 2.7---- 1.2------------
1961-04-01 2.3 5.0 -0.4- 73.5- 7.3 6.0---- 3.3------------
1961-04-02 2.9 5.9 0.1- 86.5- 7.0 0.0---- 11.0------------
1961-04-03 5.1 10.9 1.3- 83.8- 6.3 1.7---- 1.4------------
1961-04-04 3.9 9.7 0.5- 85.3- 5.0 2.0---- 2.5------------
1961-04-05 9.2 13.6 1.2- 80.5- 4.3 2.3---- 0.0------------
1961-04-06 14.4 22.2 8.6- 74.3- 5.3 1.3---- 0.0------------
1961-04-07 15.2 23.6 7.1- 72.3- 1.3 1.3---- 0.0------------
1961-04-08 10.8 15.3 7.6- 85.8- 7.7 1.3---- 4.6------------
1961-04-09 3.1 8.2 1.1- 70.3- 3.7 5.0---- 0.0------------
1961-04-10 2.0 7.2 -3.4- 68.0- 5.0 0.0---- 0.0------------
1961-04-11 5.6 13.9 -3.0- 63.5- 2.0 0.3---- 0.0------------
1961-04-12 4.1 10.3 -0.4- 69.0- 2.0 0.7---- 0.0------------
1961-04-13 9.9 18.7 -0.4- 74.8- 5.0 1.3---- 0.0------------
1961-04-14 14.0 23.1 5.3- 78.3- 5.7 0.0---- 0.0------------
1961-04-15 16.6 25.1 5.9- 60.3- 1.3 2.0---- 0.0------------
1961-04-16 15.6 24.9 9.0- 75.0- 5.7 0.3---- 0.3------------
227.3 ms

 

Źródłem pochodzenia danych jest Instytut Meteorologii i Gospodarki Wodnej – Państwowy Instytut Badawczy. Dane Instytutu Meteorologii i Gospodarki Wodnej – Państwowego Instytutu Badawczego zostały przetworzone.

Dane źródłowe można odnaleźć na stronie https://dane.imgw.pl